createdAt,value
2023-03-29T04:22:58.337Z,20.27
2023-03-29T04:26:13.806Z,23.95
2023-03-29T04:29:28.041Z,18.80
2023-03-29T04:32:42.491Z,19.50
2023-03-29T04:35:57.106Z,13.27
2023-03-29T04:39:12.782Z,15.02
2023-03-29T04:42:26.936Z,14.20
2023-03-29T04:45:41.230Z,13.15
2023-03-29T04:48:55.481Z,13.18
2023-03-29T04:52:09.924Z,18.40
2023-03-29T04:55:32.373Z,17.20
2023-03-29T04:58:46.681Z,20.48
2023-03-29T05:02:01.375Z,22.37
2023-03-29T05:05:16.221Z,24.95
2023-03-29T05:08:30.397Z,21.08
2023-03-29T05:11:45.950Z,24.52
2023-03-29T05:15:00.250Z,21.25
2023-03-29T05:18:14.599Z,23.02
2023-03-29T05:21:28.807Z,21.20
2023-03-29T05:24:43.594Z,21.95
2023-03-29T05:27:59.589Z,26.08
2023-03-29T05:31:16.712Z,27.27
2023-03-29T05:34:31.574Z,30.48
2023-03-29T05:37:48.525Z,40.25
2023-03-29T05:41:05.194Z,34.40
2023-03-29T05:44:21.153Z,46.30
2023-03-29T05:47:58.680Z,54.58
2023-03-29T05:51:19.551Z,53.38
2023-03-29T05:54:36.989Z,53.15
2023-03-29T05:57:57.841Z,47.70
2023-03-29T06:01:31.676Z,38.42
2023-03-29T06:04:46.346Z,35.10
2023-03-29T06:08:11.877Z,33.15
2023-03-29T06:11:57.262Z,31.60
2023-03-29T06:15:27.075Z,18.90
2023-03-29T06:18:50.581Z,20.75
2023-03-29T06:22:27.185Z,20.45
2023-03-29T06:25:45.110Z,31.02
2023-03-29T06:29:01.960Z,19.10
2023-03-29T06:32:28.615Z,12.88
2023-03-29T06:36:03.011Z,10.60
2023-03-29T06:39:38.547Z,12.07
2023-03-29T06:43:00.763Z,39.90
2023-03-29T06:46:32.149Z,29.48
2023-03-29T06:49:47.676Z,11.20
2023-03-29T06:53:04.859Z,8.95
2023-03-29T07:00:17.253Z,10.65
2023-03-29T07:03:55.199Z,15.18
2023-03-29T07:07:23.005Z,12.70
2023-03-29T07:11:04.410Z,11.23
2023-03-29T07:14:25.985Z,7.18
2023-03-29T07:17:55.686Z,10.60
2023-03-29T07:25:11.076Z,9.40
2023-03-29T07:28:30.281Z,7.20
2023-03-29T07:32:21.453Z,7.18
2023-03-29T07:35:46.591Z,11.25
2023-03-29T07:39:25.714Z,15.00
2023-03-29T07:42:47.148Z,10.52
2023-03-29T07:46:34.619Z,15.88
2023-03-29T07:50:04.734Z,8.73
2023-03-29T07:53:33.425Z,7.20
2023-03-29T07:56:51.767Z,9.00
2023-03-29T08:00:16.559Z,16.27
2023-03-29T08:03:42.469Z,10.20
2023-03-29T08:07:06.750Z,10.18
2023-03-29T08:10:29.691Z,10.52
2023-03-29T08:13:44.347Z,7.95
2023-03-29T08:20:44.000Z,14.27
2023-03-29T08:27:34.990Z,7.25
2023-03-29T08:30:51.391Z,8.82
2023-03-29T08:34:06.705Z,8.52
2023-03-29T08:37:35.613Z,9.43
2023-03-29T08:41:05.126Z,6.00
2023-03-29T08:44:35.134Z,10.40
2023-03-29T08:51:42.420Z,6.53
2023-03-29T08:55:17.733Z,5.47
2023-03-29T08:58:54.815Z,7.97
2023-03-29T09:02:16.082Z,5.72
2023-03-29T09:09:33.550Z,6.95
2023-03-29T09:13:27.233Z,7.85
2023-03-29T09:16:52.602Z,6.72
2023-03-29T09:20:23.162Z,9.25
2023-03-29T09:24:21.911Z,6.40
2023-03-29T09:27:54.914Z,9.30
2023-03-29T09:31:41.054Z,5.87
2023-03-29T09:39:04.719Z,9.88
2023-03-29T09:42:22.991Z,6.03
2023-03-29T09:45:50.896Z,7.82
2023-03-29T09:49:39.627Z,9.10
2023-03-29T09:53:03.006Z,9.65
2023-03-29T09:56:27.173Z,5.25
2023-03-29T10:00:01.664Z,9.80
2023-03-29T10:03:37.132Z,17.10
2023-03-29T10:07:17.476Z,7.45
2023-03-29T10:10:55.665Z,9.05
2023-03-29T10:14:28.198Z,6.28
2023-03-29T10:17:46.622Z,6.70
2023-03-29T10:21:18.159Z,6.75
2023-03-29T10:24:34.473Z,7.95
2023-03-29T10:35:37.192Z,6.78
2023-03-29T10:39:06.382Z,5.20
2023-03-29T10:42:46.219Z,8.40
2023-03-29T10:46:40.392Z,20.52
2023-03-29T10:50:05.420Z,5.62
2023-03-29T10:57:32.698Z,5.45
2023-03-29T11:01:10.525Z,7.45
2023-03-29T11:04:48.406Z,8.27
2023-03-29T11:09:02.562Z,7.22
2023-03-29T11:16:08.092Z,6.05
2023-03-29T11:20:04.974Z,5.97
2023-03-29T11:23:42.062Z,8.77
2023-03-29T11:27:48.695Z,20.52
2023-03-29T11:31:30.669Z,10.13
2023-03-29T11:35:16.367Z,13.10
2023-03-29T11:39:08.786Z,9.00
2023-03-29T11:42:42.845Z,5.30
2023-03-29T11:46:30.523Z,4.40
2023-03-29T11:50:00.747Z,7.05
2023-03-29T11:53:39.158Z,5.93
2023-03-29T11:57:15.161Z,10.25
2023-03-29T12:00:56.884Z,4.55
2023-03-29T12:04:33.354Z,4.37
2023-03-29T12:07:56.392Z,10.68
2023-03-29T12:11:48.991Z,6.12
2023-03-29T12:15:25.219Z,4.95
2023-03-29T12:18:46.103Z,8.85
2023-03-29T12:22:33.087Z,8.65
2023-03-29T12:26:12.327Z,6.57
2023-03-29T12:30:05.000Z,5.30
2023-03-29T12:34:23.956Z,4.12
2023-03-29T12:38:30.829Z,15.02
2023-03-29T12:42:20.709Z,12.75
2023-03-29T12:45:54.395Z,13.50
2023-03-29T12:49:19.270Z,5.65
2023-03-29T12:52:37.366Z,9.07
2023-03-29T13:00:02.083Z,11.27
2023-03-29T13:03:57.311Z,7.18
2023-03-29T13:07:35.592Z,4.55
2023-03-29T13:11:06.332Z,7.72
2023-03-29T13:14:25.200Z,6.60
2023-03-29T13:17:48.519Z,7.20
2023-03-29T13:21:13.891Z,8.57
2023-03-29T13:24:57.389Z,9.15
2023-03-29T13:28:56.614Z,6.37
2023-03-29T13:32:38.917Z,6.60
2023-03-29T13:36:14.888Z,5.82
2023-03-29T13:39:46.896Z,12.82
2023-03-29T13:50:59.361Z,6.25
2023-03-29T13:58:13.654Z,9.95
2023-03-29T14:01:29.832Z,5.12
2023-03-29T14:04:46.966Z,7.03
2023-03-29T14:08:05.929Z,8.43
2023-03-29T14:11:23.549Z,8.48
2023-03-29T14:23:15.685Z,9.70
2023-03-29T14:26:34.702Z,6.57
2023-03-29T14:47:51.045Z,10.00
2023-03-29T14:51:06.122Z,53.65
2023-03-29T14:54:22.309Z,38.20
2023-03-29T14:57:38.067Z,33.97
2023-03-29T15:12:51.501Z,8.00
